sensor_id;sensor_type;location;lat;lon;timestamp;pressure;altitude;pressure_sealevel;temperature;humidity
74798;BME280;63326;45.088;7.658;2023-11-21T00:02:23;98129.63;;;7.38;100.00
74798;BME280;63326;45.088;7.658;2023-11-21T00:04:50;98163.28;;;7.62;100.00
74798;BME280;63326;45.088;7.658;2023-11-21T00:07:17;98136.94;;;7.59;100.00
74798;BME280;63326;45.088;7.658;2023-11-21T00:09:44;98088.06;;;7.35;100.00
74798;BME280;63326;45.088;7.658;2023-11-21T00:12:10;98120.50;;;7.47;100.00
74798;BME280;63326;45.088;7.658;2023-11-21T00:14:38;98066.25;;;7.09;100.00
74798;BME280;63326;45.088;7.658;2023-11-21T00:17:07;98103.28;;;7.27;100.00
74798;BME280;63326;45.088;7.658;2023-11-21T00:19:34;98122.09;;;7.33;100.00
74798;BME280;63326;45.088;7.658;2023-11-21T00:22:01;98082.16;;;7.02;100.00
74798;BME280;63326;45.088;7.658;2023-11-21T00:24:28;98105.22;;;7.18;100.00
74798;BME280;63326;45.088;7.658;2023-11-21T00:26:56;98139.44;;;7.37;100.00
74798;BME280;63326;45.088;7.658;2023-11-21T00:29:22;98097.28;;;7.10;100.00
74798;BME280;63326;45.088;7.658;2023-11-21T00:31:50;98092.41;;;7.14;100.00
74798;BME280;63326;45.088;7.658;2023-11-21T00:34:17;98093.88;;;7.16;100.00
74798;BME280;63326;45.088;7.658;2023-11-21T00:36:44;98075.63;;;7.05;100.00
74798;BME280;63326;45.088;7.658;2023-11-21T00:39:11;98101.00;;;7.24;100.00
74798;BME280;63326;45.088;7.658;2023-11-21T00:41:39;98108.72;;;7.19;100.00
74798;BME280;63326;45.088;7.658;2023-11-21T00:44:06;98067.41;;;6.92;100.00
74798;BME280;63326;45.088;7.658;2023-11-21T00:46:33;98111.22;;;7.20;100.00
74798;BME280;63326;45.088;7.658;2023-11-21T00:49:00;98101.25;;;7.14;100.00
74798;BME280;63326;45.088;7.658;2023-11-21T00:51:27;98086.84;;;7.00;100.00
74798;BME280;63326;45.088;7.658;2023-11-21T00:53:53;98096.16;;;7.04;100.00
74798;BME280;63326;45.088;7.658;2023-11-21T00:56:20;98064.16;;;6.82;100.00
74798;BME280;63326;45.088;7.658;2023-11-21T00:58:47;98114.97;;;7.11;100.00
74798;BME280;63326;45.088;7.658;2023-11-21T01:01:16;98068.09;;;6.86;100.00
74798;BME280;63326;45.088;7.658;2023-11-21T01:03:43;98088.06;;;6.98;100.00
74798;BME280;63326;45.088;7.658;2023-11-21T01:06:12;98101.50;;;7.04;100.00
74798;BME280;63326;45.088;7.658;2023-11-21T01:08:41;98055.97;;;6.83;100.00
74798;BME280;63326;45.088;7.658;2023-11-21T01:11:09;98099.13;;;7.09;100.00
74798;BME280;63326;45.088;7.658;2023-11-21T01:13:39;98119.28;;;7.12;100.00
74798;BME280;63326;45.088;7.658;2023-11-21T01:16:06;98110.81;;;7.08;100.00
74798;BME280;63326;45.088;7.658;2023-11-21T01:18:35;98065.09;;;6.89;100.00
74798;BME280;63326;45.088;7.658;2023-11-21T01:21:01;98076.53;;;6.97;100.00
74798;BME280;63326;45.088;7.658;2023-11-21T01:23:28;98085.66;;;7.03;100.00
74798;BME280;63326;45.088;7.658;2023-11-21T01:25:56;98102.66;;;7.25;100.00
74798;BME280;63326;45.088;7.658;2023-11-21T01:28:22;98112.63;;;7.31;100.00
74798;BME280;63326;45.088;7.658;2023-11-21T01:30:49;98113.09;;;7.34;100.00
74798;BME280;63326;45.088;7.658;2023-11-21T01:33:16;98096.09;;;7.27;100.00
74798;BME280;63326;45.088;7.658;2023-11-21T01:35:43;98110.25;;;7.36;100.00
74798;BME280;63326;45.088;7.658;2023-11-21T01:38:09;98072.69;;;7.15;100.00
74798;BME280;63326;45.088;7.658;2023-11-21T01:40:37;98115.59;;;7.36;100.00
74798;BME280;63326;45.088;7.658;2023-11-21T01:43:04;98106.91;;;7.34;100.00
74798;BME280;63326;45.088;7.658;2023-11-21T01:45:31;98105.13;;;7.26;100.00
74798;BME280;63326;45.088;7.658;2023-11-21T01:48:00;98047.69;;;6.93;100.00
74798;BME280;63326;45.088;7.658;2023-11-21T01:50:29;98101.38;;;7.21;100.00
74798;BME280;63326;45.088;7.658;2023-11-21T01:52:56;98089.63;;;7.07;100.00
74798;BME280;63326;45.088;7.658;2023-11-21T01:55:23;98098.00;;;7.04;100.00
74798;BME280;63326;45.088;7.658;2023-11-21T01:57:56;98116.75;;;7.19;100.00
74798;BME280;63326;45.088;7.658;2023-11-21T02:00:26;98126.84;;;7.08;100.00
74798;BME280;63326;45.088;7.658;2023-11-21T02:02:55;98101.63;;;6.88;100.00
74798;BME280;63326;45.088;7.658;2023-11-21T02:05:23;98043.53;;;6.53;100.00
74798;BME280;63326;45.088;7.658;2023-11-21T02:07:50;98107.19;;;7.01;100.00
74798;BME280;63326;45.088;7.658;2023-11-21T02:10:19;98077.31;;;6.83;100.00
74798;BME280;63326;45.088;7.658;2023-11-21T02:12:50;98089.88;;;6.97;100.00
74798;BME280;63326;45.088;7.658;2023-11-21T02:15:18;98098.75;;;7.13;100.00
74798;BME280;63326;45.088;7.658;2023-11-21T02:17:49;98070.91;;;6.92;100.00
74798;BME280;63326;45.088;7.658;2023-11-21T02:20:21;98049.91;;;6.89;100.00
74798;BME280;63326;45.088;7.658;2023-11-21T02:22:55;98064.19;;;6.96;100.00
74798;BME280;63326;45.088;7.658;2023-11-21T02:25:30;98112.94;;;7.13;100.00
74798;BME280;63326;45.088;7.658;2023-11-21T02:28:00;98095.69;;;7.01;100.00
74798;BME280;63326;45.088;7.658;2023-11-21T02:30:27;98071.59;;;6.86;100.00
74798;BME280;63326;45.088;7.658;2023-11-21T02:32:55;98082.88;;;6.96;100.00
74798;BME280;63326;45.088;7.658;2023-11-21T02:35:24;98080.56;;;6.93;100.00
74798;BME280;63326;45.088;7.658;2023-11-21T02:37:54;98051.00;;;6.80;100.00
74798;BME280;63326;45.088;7.658;2023-11-21T02:40:21;98061.41;;;6.90;100.00
74798;BME280;63326;45.088;7.658;2023-11-21T02:42:48;98084.13;;;7.08;100.00
74798;BME280;63326;45.088;7.658;2023-11-21T02:45:20;98080.63;;;7.08;100.00
74798;BME280;63326;45.088;7.658;2023-11-21T02:47:48;98072.78;;;7.06;100.00
74798;BME280;63326;45.088;7.658;2023-11-21T02:50:16;98078.97;;;7.22;100.00
74798;BME280;63326;45.088;7.658;2023-11-21T02:52:45;98061.38;;;7.13;100.00
74798;BME280;63326;45.088;7.658;2023-11-21T02:55:13;98029.59;;;7.03;100.00
74798;BME280;63326;45.088;7.658;2023-11-21T02:57:40;98048.66;;;7.15;100.00
74798;BME280;63326;45.088;7.658;2023-11-21T03:00:07;98088.09;;;7.27;100.00
74798;BME280;63326;45.088;7.658;2023-11-21T03:02:34;98090.75;;;7.27;100.00
74798;BME280;63326;45.088;7.658;2023-11-21T03:05:06;98088.78;;;7.29;100.00
74798;BME280;63326;45.088;7.658;2023-11-21T03:07:37;98040.28;;;7.03;100.00
74798;BME280;63326;45.088;7.658;2023-11-21T03:10:04;98064.34;;;7.18;100.00
74798;BME280;63326;45.088;7.658;2023-11-21T03:12:31;98028.66;;;6.96;100.00
74798;BME280;63326;45.088;7.658;2023-11-21T03:14:58;98058.00;;;7.19;100.00
74798;BME280;63326;45.088;7.658;2023-11-21T03:17:24;98068.56;;;7.27;100.00
74798;BME280;63326;45.088;7.658;2023-11-21T03:19:51;98024.44;;;7.01;100.00
74798;BME280;63326;45.088;7.658;2023-11-21T03:22:18;98054.56;;;7.25;100.00
74798;BME280;63326;45.088;7.658;2023-11-21T03:24:46;98068.03;;;7.31;100.00
74798;BME280;63326;45.088;7.658;2023-11-21T03:27:12;98003.81;;;6.95;100.00
74798;BME280;63326;45.088;7.658;2023-11-21T03:29:39;98052.56;;;7.27;100.00
74798;BME280;63326;45.088;7.658;2023-11-21T03:32:06;98056.84;;;7.36;100.00
74798;BME280;63326;45.088;7.658;2023-11-21T03:34:33;98044.78;;;7.40;100.00
74798;BME280;63326;45.088;7.658;2023-11-21T03:37:00;98034.16;;;7.32;100.00
74798;BME280;63326;45.088;7.658;2023-11-21T03:39:27;98065.53;;;7.38;100.00
74798;BME280;63326;45.088;7.658;2023-11-21T03:41:56;98074.63;;;7.44;100.00
74798;BME280;63326;45.088;7.658;2023-11-21T03:44:22;98014.53;;;7.10;100.00
74798;BME280;63326;45.088;7.658;2023-11-21T03:46:51;98061.88;;;7.31;100.00
74798;BME280;63326;45.088;7.658;2023-11-21T03:49:17;98062.06;;;7.29;100.00
74798;BME280;63326;45.088;7.658;2023-11-21T03:51:44;98055.59;;;7.24;100.00
74798;BME280;63326;45.088;7.658;2023-11-21T03:54:11;98031.19;;;7.12;100.00
74798;BME280;63326;45.088;7.658;2023-11-21T03:56:38;98037.72;;;7.24;100.00
74798;BME280;63326;45.088;7.658;2023-11-21T03:59:05;98007.72;;;7.07;100.00
74798;BME280;63326;45.088;7.658;2023-11-21T04:01:32;98007.72;;;7.07;100.00
74798;BME280;63326;45.088;7.658;2023-11-21T04:03:59;98069.41;;;7.27;100.00
74798;BME280;63326;45.088;7.658;2023-11-21T04:06:26;98021.56;;;6.88;100.00
74798;BME280;63326;45.088;7.658;2023-11-21T04:08:53;98064.34;;;7.18;100.00
74798;BME280;63326;45.088;7.658;2023-11-21T04:11:19;98052.47;;;7.20;100.00
74798;BME280;63326;45.088;7.658;2023-11-21T04:13:46;98023.72;;;7.07;100.00
74798;BME280;63326;45.088;7.658;2023-11-21T04:16:13;98054.50;;;7.18;100.00
74798;BME280;63326;45.088;7.658;2023-11-21T04:18:40;98070.97;;;7.22;100.00
74798;BME280;63326;45.088;7.658;2023-11-21T04:21:07;98092.53;;;7.20;100.00
74798;BME280;63326;45.088;7.658;2023-11-21T04:23:35;98081.69;;;6.99;100.00
74798;BME280;63326;45.088;7.658;2023-11-21T04:26:02;98075.38;;;6.77;100.00
74798;BME280;63326;45.088;7.658;2023-11-21T04:28:29;98067.34;;;6.54;100.00
74798;BME280;63326;45.088;7.658;2023-11-21T04:30:56;98082.75;;;6.44;100.00
74798;BME280;63326;45.088;7.658;2023-11-21T04:33:22;98055.00;;;5.99;100.00
74798;BME280;63326;45.088;7.658;2023-11-21T04:35:49;98082.31;;;6.01;100.00
74798;BME280;63326;45.088;7.658;2023-11-21T04:38:16;98066.34;;;5.93;100.00
74798;BME280;63326;45.088;7.658;2023-11-21T04:40:43;98053.63;;;5.72;100.00
74798;BME280;63326;45.088;7.658;2023-11-21T04:43:09;98057.16;;;5.64;100.00
74798;BME280;63326;45.088;7.658;2023-11-21T04:45:36;98066.84;;;5.57;100.00
74798;BME280;63326;45.088;7.658;2023-11-21T04:48:03;98045.63;;;5.17;100.00
74798;BME280;63326;45.088;7.658;2023-11-21T04:50:30;98038.81;;;4.90;100.00
74798;BME280;63326;45.088;7.658;2023-11-21T04:52:57;98052.63;;;4.85;100.00
74798;BME280;63326;45.088;7.658;2023-11-21T04:55:24;98066.94;;;5.00;100.00
74798;BME280;63326;45.088;7.658;2023-11-21T04:57:54;98073.91;;;5.18;100.00
74798;BME280;63326;45.088;7.658;2023-11-21T05:00:21;98078.72;;;5.30;100.00
74798;BME280;63326;45.088;7.658;2023-11-21T05:02:47;98076.22;;;5.21;100.00
74798;BME280;63326;45.088;7.658;2023-11-21T05:05:14;98084.19;;;5.45;100.00
74798;BME280;63326;45.088;7.658;2023-11-21T05:07:41;98076.03;;;5.47;100.00
74798;BME280;63326;45.088;7.658;2023-11-21T05:10:09;98101.47;;;5.57;100.00
74798;BME280;63326;45.088;7.658;2023-11-21T05:12:40;98089.34;;;5.47;100.00
74798;BME280;63326;45.088;7.658;2023-11-21T05:15:08;98097.13;;;5.56;100.00
74798;BME280;63326;45.088;7.658;2023-11-21T05:17:38;98070.81;;;5.53;100.00
74798;BME280;63326;45.088;7.658;2023-11-21T05:20:10;98108.53;;;5.81;100.00
74798;BME280;63326;45.088;7.658;2023-11-21T05:22:38;98031.59;;;5.39;100.00
74798;BME280;63326;45.088;7.658;2023-11-21T05:25:06;98103.47;;;6.03;100.00
74798;BME280;63326;45.088;7.658;2023-11-21T05:27:35;98098.78;;;6.05;100.00
74798;BME280;63326;45.088;7.658;2023-11-21T05:30:03;98106.94;;;6.11;100.00
74798;BME280;63326;45.088;7.658;2023-11-21T05:32:32;98100.25;;;6.15;100.00
74798;BME280;63326;45.088;7.658;2023-11-21T05:34:59;98053.31;;;6.06;100.00
74798;BME280;63326;45.088;7.658;2023-11-21T05:37:26;98103.41;;;6.50;100.00
74798;BME280;63326;45.088;7.658;2023-11-21T05:39:53;98097.41;;;6.48;100.00
74798;BME280;63326;45.088;7.658;2023-11-21T05:42:23;98052.94;;;6.17;100.00
74798;BME280;63326;45.088;7.658;2023-11-21T05:44:50;98046.34;;;6.05;100.00
74798;BME280;63326;45.088;7.658;2023-11-21T05:47:16;98095.97;;;6.37;100.00
74798;BME280;63326;45.088;7.658;2023-11-21T05:49:45;98067.09;;;6.18;100.00
74798;BME280;63326;45.088;7.658;2023-11-21T05:52:16;98048.47;;;6.10;100.00
74798;BME280;63326;45.088;7.658;2023-11-21T05:54:43;98026.88;;;5.97;100.00
74798;BME280;63326;45.088;7.658;2023-11-21T05:57:10;98072.97;;;6.36;100.00
74798;BME280;63326;45.088;7.658;2023-11-21T05:59:37;98073.03;;;6.28;100.00
74798;BME280;63326;45.088;7.658;2023-11-21T06:02:03;98083.19;;;6.25;100.00
74798;BME280;63326;45.088;7.658;2023-11-21T06:04:31;98047.69;;;5.93;100.00
74798;BME280;63326;45.088;7.658;2023-11-21T06:06:58;98070.78;;;6.09;100.00
74798;BME280;63326;45.088;7.658;2023-11-21T06:09:24;98049.34;;;5.94;100.00
74798;BME280;63326;45.088;7.658;2023-11-21T06:11:51;98066.84;;;5.97;100.00
74798;BME280;63326;45.088;7.658;2023-11-21T06:14:18;98056.03;;;5.98;100.00
74798;BME280;63326;45.088;7.658;2023-11-21T06:16:45;98061.34;;;5.98;100.00
74798;BME280;63326;45.088;7.658;2023-11-21T06:19:12;98058.31;;;6.01;100.00
74798;BME280;63326;45.088;7.658;2023-11-21T06:21:39;98031.41;;;5.88;100.00
74798;BME280;63326;45.088;7.658;2023-11-21T06:24:05;98061.44;;;6.13;100.00
74798;BME280;63326;45.088;7.658;2023-11-21T06:26:33;98030.63;;;6.10;100.00
74798;BME280;63326;45.088;7.658;2023-11-21T06:29:01;98073.91;;;6.43;100.00
74798;BME280;63326;45.088;7.658;2023-11-21T06:31:29;98054.66;;;6.33;100.00
74798;BME280;63326;45.088;7.658;2023-11-21T06:33:56;98017.78;;;6.14;100.00
74798;BME280;63326;45.088;7.658;2023-11-21T06:36:24;98034.91;;;6.19;100.00
74798;BME280;63326;45.088;7.658;2023-11-21T06:38:51;98047.84;;;6.31;100.00
74798;BME280;63326;45.088;7.658;2023-11-21T06:41:17;98034.22;;;6.26;100.00
74798;BME280;63326;45.088;7.658;2023-11-21T06:43:44;98019.94;;;6.18;100.00
74798;BME280;63326;45.088;7.658;2023-11-21T06:46:13;98033.22;;;6.27;100.00
74798;BME280;63326;45.088;7.658;2023-11-21T06:48:43;98073.59;;;6.46;100.00
74798;BME280;63326;45.088;7.658;2023-11-21T06:51:10;98052.75;;;6.42;100.00
74798;BME280;63326;45.088;7.658;2023-11-21T06:53:37;98035.25;;;6.47;100.00
74798;BME280;63326;45.088;7.658;2023-11-21T06:56:14;98057.16;;;6.58;100.00
74798;BME280;63326;45.088;7.658;2023-11-21T06:58:41;98030.97;;;6.38;100.00
74798;BME280;63326;45.088;7.658;2023-11-21T07:01:08;98066.47;;;6.62;100.00
74798;BME280;63326;45.088;7.658;2023-11-21T07:03:35;98076.78;;;6.65;100.00
74798;BME280;63326;45.088;7.658;2023-11-21T07:06:04;98065.69;;;6.53;100.00
74798;BME280;63326;45.088;7.658;2023-11-21T07:08:31;98105.31;;;6.87;100.00
74798;BME280;63326;45.088;7.658;2023-11-21T07:10:57;98064.94;;;6.67;100.00
74798;BME280;63326;45.088;7.658;2023-11-21T07:13:24;98109.94;;;6.93;100.00
74798;BME280;63326;45.088;7.658;2023-11-21T07:15:52;98083.84;;;6.80;100.00
74798;BME280;63326;45.088;7.658;2023-11-21T07:18:19;98047.31;;;6.58;100.00
74798;BME280;63326;45.088;7.658;2023-11-21T07:20:45;98076.94;;;6.86;100.00
74798;BME280;63326;45.088;7.658;2023-11-21T07:23:12;98041.06;;;6.66;100.00
74798;BME280;63326;45.088;7.658;2023-11-21T07:25:39;98077.25;;;6.91;100.00
74798;BME280;63326;45.088;7.658;2023-11-21T07:28:08;98046.25;;;6.67;100.00
74798;BME280;63326;45.088;7.658;2023-11-21T07:30:34;98060.84;;;6.79;100.00
74798;BME280;63326;45.088;7.658;2023-11-21T07:33:01;98083.41;;;6.92;100.00
74798;BME280;63326;45.088;7.658;2023-11-21T07:35:28;98095.44;;;7.11;100.00
74798;BME280;63326;45.088;7.658;2023-11-21T07:37:54;98070.63;;;6.87;100.00
74798;BME280;63326;45.088;7.658;2023-11-21T07:40:21;98038.16;;;6.75;100.00
74798;BME280;63326;45.088;7.658;2023-11-21T07:42:49;98030.75;;;6.86;100.00
74798;BME280;63326;45.088;7.658;2023-11-21T07:45:17;98069.59;;;7.26;100.00
74798;BME280;63326;45.088;7.658;2023-11-21T07:47:43;98007.16;;;7.12;100.00
74798;BME280;63326;45.088;7.658;2023-11-21T07:50:10;98045.66;;;7.32;100.00
74798;BME280;63326;45.088;7.658;2023-11-21T07:52:37;98042.47;;;7.37;100.00
74798;BME280;63326;45.088;7.658;2023-11-21T07:55:04;98079.63;;;7.61;100.00
74798;BME280;63326;45.088;7.658;2023-11-21T07:57:31;98055.84;;;7.66;100.00
74798;BME280;63326;45.088;7.658;2023-11-21T07:59:57;98023.75;;;7.66;100.00
74798;BME280;63326;45.088;7.658;2023-11-21T08:02:24;97996.69;;;7.55;100.00
74798;BME280;63326;45.088;7.658;2023-11-21T08:04:52;98006.44;;;7.77;100.00
74798;BME280;63326;45.088;7.658;2023-11-21T08:07:19;97993.38;;;8.04;100.00
74798;BME280;63326;45.088;7.658;2023-11-21T08:09:46;98016.59;;;8.39;100.00
74798;BME280;63326;45.088;7.658;2023-11-21T08:12:14;98035.72;;;8.58;100.00
74798;BME280;63326;45.088;7.658;2023-11-21T08:14:41;98032.94;;;8.66;99.63
74798;BME280;63326;45.088;7.658;2023-11-21T08:17:07;98037.38;;;8.80;98.82
74798;BME280;63326;45.088;7.658;2023-11-21T08:19:36;98005.06;;;8.60;98.81
74798;BME280;63326;45.088;7.658;2023-11-21T08:22:03;98020.06;;;8.76;99.37
74798;BME280;63326;45.088;7.658;2023-11-21T08:24:30;97997.94;;;8.67;98.59
74798;BME280;63326;45.088;7.658;2023-11-21T08:26:57;98002.53;;;8.73;98.63
74798;BME280;63326;45.088;7.658;2023-11-21T08:29:24;98022.91;;;8.96;97.72
74798;BME280;63326;45.088;7.658;2023-11-21T08:31:51;98053.94;;;9.33;96.06
74798;BME280;63326;45.088;7.658;2023-11-21T08:34:18;98021.28;;;9.23;95.46
74798;BME280;63326;45.088;7.658;2023-11-21T08:36:45;98007.47;;;8.98;96.42
74798;BME280;63326;45.088;7.658;2023-11-21T08:39:12;98014.97;;;9.09;96.26
74798;BME280;63326;45.088;7.658;2023-11-21T08:41:39;98045.38;;;8.73;100.00
74798;BME280;63326;45.088;7.658;2023-11-21T08:44:06;98031.06;;;8.88;100.00
74798;BME280;63326;45.088;7.658;2023-11-21T08:46:33;97987.53;;;8.79;100.00
74798;BME280;63326;45.088;7.658;2023-11-21T08:49:01;98018.75;;;9.21;99.29
74798;BME280;63326;45.088;7.658;2023-11-21T08:51:28;97996.06;;;9.17;98.97
74798;BME280;63326;45.088;7.658;2023-11-21T08:53:54;97958.72;;;9.09;97.60
74798;BME280;63326;45.088;7.658;2023-11-21T08:56:25;97958.75;;;9.16;95.30
74798;BME280;63326;45.088;7.658;2023-11-21T08:58:52;97975.03;;;9.42;95.48
74798;BME280;63326;45.088;7.658;2023-11-21T09:01:19;98008.72;;;9.58;94.29
74798;BME280;63326;45.088;7.658;2023-11-21T09:03:46;97992.44;;;9.59;92.52
74798;BME280;63326;45.088;7.658;2023-11-21T09:06:12;97977.31;;;9.45;92.00
74798;BME280;63326;45.088;7.658;2023-11-21T09:08:40;97993.72;;;9.63;92.86
74798;BME280;63326;45.088;7.658;2023-11-21T09:11:08;98014.66;;;9.88;92.78
74798;BME280;63326;45.088;7.658;2023-11-21T09:13:35;97946.28;;;9.64;91.04
74798;BME280;63326;45.088;7.658;2023-11-21T09:16:03;97976.84;;;9.76;92.03
74798;BME280;63326;45.088;7.658;2023-11-21T09:18:29;97968.00;;;9.82;91.78
74798;BME280;63326;45.088;7.658;2023-11-21T09:20:57;97979.66;;;10.09;90.35
74798;BME280;63326;45.088;7.658;2023-11-21T09:23:24;98011.50;;;10.39;88.16
74798;BME280;63326;45.088;7.658;2023-11-21T09:25:51;97957.16;;;10.10;88.51
74798;BME280;63326;45.088;7.658;2023-11-21T09:28:18;97994.38;;;10.40;88.92
74798;BME280;63326;45.088;7.658;2023-11-21T09:30:45;97952.66;;;10.24;88.22
74798;BME280;63326;45.088;7.658;2023-11-21T09:33:12;97948.13;;;10.38;86.56
74798;BME280;63326;45.088;7.658;2023-11-21T09:35:38;97979.97;;;10.67;84.96
74798;BME280;63326;45.088;7.658;2023-11-21T09:38:05;97973.56;;;10.55;85.37
74798;BME280;63326;45.088;7.658;2023-11-21T09:40:37;98022.16;;;11.20;83.06
74798;BME280;63326;45.088;7.658;2023-11-21T09:43:15;97952.91;;;10.69;82.93
74798;BME280;63326;45.088;7.658;2023-11-21T09:45:48;98021.94;;;11.01;83.44
74798;BME280;63326;45.088;7.658;2023-11-21T09:48:20;98020.69;;;11.24;82.57
74798;BME280;63326;45.088;7.658;2023-11-21T09:50:47;98019.22;;;11.48;81.53
74798;BME280;63326;45.088;7.658;2023-11-21T09:53:19;98017.38;;;11.22;83.15
74798;BME280;63326;45.088;7.658;2023-11-21T09:55:52;98009.69;;;11.52;81.28
74798;BME280;63326;45.088;7.658;2023-11-21T09:58:20;97967.41;;;10.88;81.29
74798;BME280;63326;45.088;7.658;2023-11-21T10:00:53;97997.38;;;9.56;91.76
74798;BME280;63326;45.088;7.658;2023-11-21T10:03:20;97974.06;;;9.56;93.08
74798;BME280;63326;45.088;7.658;2023-11-21T10:05:50;97951.34;;;9.93;89.76
74798;BME280;63326;45.088;7.658;2023-11-21T10:08:17;97958.50;;;10.80;84.48
74798;BME280;63326;45.088;7.658;2023-11-21T10:10:45;97950.84;;;10.84;82.87
74798;BME280;63326;45.088;7.658;2023-11-21T10:13:14;97984.50;;;11.33;81.22
74798;BME280;63326;45.088;7.658;2023-11-21T10:15:50;97985.34;;;11.27;82.95
74798;BME280;63326;45.088;7.658;2023-11-21T10:18:17;97956.81;;;11.19;82.30
74798;BME280;63326;45.088;7.658;2023-11-21T10:20:45;97908.84;;;11.81;76.54
74798;BME280;63326;45.088;7.658;2023-11-21T10:23:20;97968.47;;;12.54;74.70
74798;BME280;63326;45.088;7.658;2023-11-21T10:25:48;97949.19;;;13.07;69.83
74798;BME280;63326;45.088;7.658;2023-11-21T10:28:16;97904.31;;;13.56;68.33
74798;BME280;63326;45.088;7.658;2023-11-21T10:30:42;97944.72;;;14.41;64.74
74798;BME280;63326;45.088;7.658;2023-11-21T10:33:10;97932.63;;;15.20;60.42
74798;BME280;63326;45.088;7.658;2023-11-21T10:35:48;97927.44;;;15.30;59.22
74798;BME280;63326;45.088;7.658;2023-11-21T10:38:21;97901.84;;;14.86;60.13
74798;BME280;63326;45.088;7.658;2023-11-21T10:40:50;97926.03;;;15.39;58.70
74798;BME280;63326;45.088;7.658;2023-11-21T10:43:17;97891.38;;;15.25;58.33
74798;BME280;63326;45.088;7.658;2023-11-21T10:45:45;97889.88;;;14.52;60.30
74798;BME280;63326;45.088;7.658;2023-11-21T10:48:13;97906.53;;;15.14;59.28
74798;BME280;63326;45.088;7.658;2023-11-21T10:50:46;97928.00;;;15.67;57.11
74798;BME280;63326;45.088;7.658;2023-11-21T10:53:13;97866.28;;;15.41;56.42
74798;BME280;63326;45.088;7.658;2023-11-21T10:55:40;97921.75;;;15.67;56.12
74798;BME280;63326;45.088;7.658;2023-11-21T10:58:09;97898.25;;;15.44;57.44
74798;BME280;63326;45.088;7.658;2023-11-21T11:00:38;97905.31;;;15.33;57.92
74798;BME280;63326;45.088;7.658;2023-11-21T11:03:07;97893.84;;;15.26;57.51
74798;BME280;63326;45.088;7.658;2023-11-21T11:05:41;97887.59;;;15.02;58.27
74798;BME280;63326;45.088;7.658;2023-11-21T11:08:12;97853.13;;;14.51;59.68
74798;BME280;63326;45.088;7.658;2023-11-21T11:10:45;97847.63;;;14.04;61.69
74798;BME280;63326;45.088;7.658;2023-11-21T11:13:15;97892.31;;;14.42;61.69
74798;BME280;63326;45.088;7.658;2023-11-21T11:15:42;97833.56;;;14.02;61.95
74798;BME280;63326;45.088;7.658;2023-11-21T11:18:11;97810.25;;;13.59;63.19
74798;BME280;63326;45.088;7.658;2023-11-21T11:20:39;97852.81;;;13.76;63.93
74798;BME280;63326;45.088;7.658;2023-11-21T11:28:47;97870.28;;;13.73;64.75
74798;BME280;63326;45.088;7.658;2023-11-21T11:34:23;97828.56;;;13.39;65.29
74798;BME280;63326;45.088;7.658;2023-11-21T11:37:06;97807.38;;;13.24;65.07
74798;BME280;63326;45.088;7.658;2023-11-21T11:39:39;97856.94;;;13.60;65.29
74798;BME280;63326;45.088;7.658;2023-11-21T11:42:12;97849.25;;;13.63;65.78
74798;BME280;63326;45.088;7.658;2023-11-21T11:47:28;97843.34;;;13.55;66.26
74798;BME280;63326;45.088;7.658;2023-11-21T11:50:10;97848.66;;;13.61;66.16
74798;BME280;63326;45.088;7.658;2023-11-21T11:52:42;97802.22;;;13.41;65.44
74798;BME280;63326;45.088;7.658;2023-11-21T11:55:12;97819.47;;;13.70;64.63
74798;BME280;63326;45.088;7.658;2023-11-21T11:57:46;97840.41;;;13.86;64.64
74798;BME280;63326;45.088;7.658;2023-11-21T12:00:18;97832.50;;;13.73;64.83
74798;BME280;63326;45.088;7.658;2023-11-21T12:02:55;97787.34;;;13.50;64.36
74798;BME280;63326;45.088;7.658;2023-11-21T12:05:27;97798.06;;;13.57;64.56
74798;BME280;63326;45.088;7.658;2023-11-21T12:08:06;97828.66;;;13.81;63.67
74798;BME280;63326;45.088;7.658;2023-11-21T12:10:35;97831.13;;;13.82;63.65
74798;BME280;63326;45.088;7.658;2023-11-21T12:13:05;97834.88;;;13.81;64.04
74798;BME280;63326;45.088;7.658;2023-11-21T12:15:34;97836.75;;;13.81;64.53
74798;BME280;63326;45.088;7.658;2023-11-21T12:18:02;97808.31;;;13.66;64.24
74798;BME280;63326;45.088;7.658;2023-11-21T12:20:32;97813.72;;;13.66;64.25
74798;BME280;63326;45.088;7.658;2023-11-21T12:23:05;97798.41;;;13.60;64.20
74798;BME280;63326;45.088;7.658;2023-11-21T12:25:32;97787.34;;;13.50;64.42
74798;BME280;63326;45.088;7.658;2023-11-21T12:28:00;97783.25;;;13.48;64.28
74798;BME280;63326;45.088;7.658;2023-11-21T12:30:29;97813.72;;;13.66;64.62
74798;BME280;63326;45.088;7.658;2023-11-21T12:32:59;97750.47;;;13.14;64.93
74798;BME280;63326;45.088;7.658;2023-11-21T12:35:28;97793.84;;;13.31;65.47
74798;BME280;63326;45.088;7.658;2023-11-21T12:37:57;97774.97;;;13.12;66.37
74798;BME280;63326;45.088;7.658;2023-11-21T12:40:24;97781.84;;;13.27;66.34
74798;BME280;63326;45.088;7.658;2023-11-21T12:42:53;97781.09;;;13.20;66.23
74798;BME280;63326;45.088;7.658;2023-11-21T12:45:21;97763.66;;;13.04;66.57
74798;BME280;63326;45.088;7.658;2023-11-21T12:47:49;97811.50;;;13.27;66.81
74798;BME280;63326;45.088;7.658;2023-11-21T12:50:21;97814.06;;;13.22;67.01
74798;BME280;63326;45.088;7.658;2023-11-21T12:52:51;97787.09;;;13.03;67.59
74798;BME280;63326;45.088;7.658;2023-11-21T12:55:19;97799.06;;;13.07;67.59
74798;BME280;63326;45.088;7.658;2023-11-21T12:57:49;97793.25;;;13.10;67.44
74798;BME280;63326;45.088;7.658;2023-11-21T13:00:19;97785.00;;;13.05;67.56
74798;BME280;63326;45.088;7.658;2023-11-21T13:02:56;97802.81;;;13.06;68.45
74798;BME280;63326;45.088;7.658;2023-11-21T13:05:35;97808.38;;;12.93;69.80
74798;BME280;63326;45.088;7.658;2023-11-21T13:08:08;97786.06;;;12.86;69.63
74798;BME280;63326;45.088;7.658;2023-11-21T13:10:40;97813.13;;;13.09;68.96
74798;BME280;63326;45.088;7.658;2023-11-21T13:13:10;97809.03;;;13.07;68.82
74798;BME280;63326;45.088;7.658;2023-11-21T13:16:02;97799.22;;;12.94;69.18
74798;BME280;63326;45.088;7.658;2023-11-21T13:18:33;97797.28;;;12.83;69.50